Time;durP1;ratioP1;P1;durP2;ratioP2;P2;SDS_P1;SDS_P2;PMS_P1;PMS_P2;Temp;Humidity;BMP_temperature;BMP_pressure;BME280_temperature;BME280_humidity;BME280_pressure;Samples;Min_cycle;Max_cycle;Signal;HPM_P1;HPM_P2
2021/03/03 00:01:28;;;;;;;34.17;17.40;;;;;;;1.47;100.00;102385.03;5050068;28;20223;-69
2021/03/03 00:03:56;;;;;;;35.97;18.10;;;;;;;1.42;100.00;102382.03;5017146;28;20211;-69
2021/03/03 00:06:24;;;;;;;33.10;16.77;;;;;;;1.37;100.00;102387.03;5049180;28;20223;-69
2021/03/03 00:08:54;;;;;;;27.80;15.33;;;;;;;1.42;100.00;102379.34;5034139;28;20191;-69
2021/03/03 00:11:19;;;;;;;25.80;13.90;;;;;;;1.34;100.00;102379.38;5032747;28;20246;-68
2021/03/03 00:13:47;;;;;;;28.43;14.47;;;;;;;1.36;100.00;102377.38;5016257;28;20218;-69
2021/03/03 00:16:17;;;;;;;28.17;14.93;;;;;;;1.44;100.00;102377.34;5033023;28;20314;-70
2021/03/03 00:18:48;;;;;;;32.17;15.47;;;;;;;1.35;100.00;102378.34;5050310;28;20184;-71
2021/03/03 00:21:16;;;;;;;26.17;14.67;;;;;;;1.21;100.00;102365.69;5049594;28;20215;-70
2021/03/03 00:23:44;;;;;;;27.47;13.93;;;;;;;1.17;100.00;102369.72;5048847;28;20686;-70
2021/03/03 00:26:09;;;;;;;24.80;13.63;;;;;;;1.41;100.00;102369.66;5050599;28;20311;-69
2021/03/03 00:28:35;;;;;;;24.70;13.50;;;;;;;1.23;100.00;102363.69;5033203;28;20188;-68
2021/03/03 00:31:00;;;;;;;27.73;13.87;;;;;;;1.22;100.00;102362.00;5050249;28;20212;-69
2021/03/03 00:33:28;;;;;;;28.53;14.43;;;;;;;1.10;100.00;102367.91;5028753;28;20681;-70
2021/03/03 00:35:54;;;;;;;29.13;14.57;;;;;;;1.32;100.00;102357.31;5029118;28;20281;-71
2021/03/03 00:38:22;;;;;;;25.90;14.40;;;;;;;1.25;100.00;102364.34;5029846;28;20215;-69
2021/03/03 00:40:47;;;;;;;29.23;14.50;;;;;;;1.20;100.00;102358.66;5029275;28;20227;-69
2021/03/03 00:43:15;;;;;;;30.37;15.60;;;;;;;1.17;100.00;102363.50;5012487;28;20195;-68
2021/03/03 00:45:43;;;;;;;27.47;14.47;;;;;;;1.10;100.00;102357.19;5045610;28;20307;-71
2021/03/03 00:48:11;;;;;;;26.23;13.90;;;;;;;1.21;100.00;102352.31;5029551;28;20184;-69
2021/03/03 00:50:39;;;;;;;27.20;15.27;;;;;;;1.23;100.00;102358.34;5045670;28;20220;-68
2021/03/03 00:53:11;;;;;;;28.63;14.87;;;;;;;1.13;100.00;102361.38;5049493;28;20179;-69
2021/03/03 00:55:38;;;;;;;31.83;15.93;;;;;;;0.95;100.00;102363.38;5015870;28;20902;-69
2021/03/03 00:58:04;;;;;;;33.97;17.33;;;;;;;0.84;100.00;102361.06;5032844;28;20261;-69
2021/03/03 01:00:30;;;;;;;30.33;14.27;;;;;;;1.10;100.00;102349.16;5048513;28;20191;-70
2021/03/03 01:02:59;;;;;;;25.77;14.20;;;;;;;0.97;100.00;102358.69;5048330;28;20190;-68
2021/03/03 01:05:25;;;;;;;28.17;15.07;;;;;;;1.01;100.00;102352.00;5048710;28;20225;-69
2021/03/03 01:07:51;;;;;;;27.23;14.87;;;;;;;0.93;100.00;102349.34;5016068;28;20855;-69
2021/03/03 01:10:17;;;;;;;30.97;15.63;;;;;;;1.21;100.00;102348.81;5015642;28;20183;-68
2021/03/03 01:12:47;;;;;;;37.23;16.07;;;;;;;0.98;100.00;102342.50;5032462;28;20180;-68
2021/03/03 01:15:13;;;;;;;35.17;16.37;;;;;;;1.16;100.00;102341.28;5031588;28;20207;-69
2021/03/03 01:17:42;;;;;;;34.57;16.43;;;;;;;0.99;100.00;102332.63;5032927;28;20650;-68
2021/03/03 01:20:10;;;;;;;33.70;16.23;;;;;;;1.05;100.00;102342.66;5051121;28;20184;-69
2021/03/03 01:22:40;;;;;;;39.07;18.03;;;;;;;1.24;100.00;102327.03;5068359;28;20825;-69
2021/03/03 01:25:06;;;;;;;34.93;15.67;;;;;;;1.35;100.00;102319.47;5087224;28;20214;-69
2021/03/03 01:27:32;;;;;;;29.50;14.23;;;;;;;1.03;100.00;102328.63;5012326;28;20172;-70
2021/03/03 01:29:58;;;;;;;33.30;16.13;;;;;;;1.22;100.00;102324.53;5029122;28;20191;-69
2021/03/03 01:32:23;;;;;;;32.07;13.97;;;;;;;1.27;100.00;102322.19;5027944;28;20239;-70
2021/03/03 01:34:51;;;;;;;25.83;13.60;;;;;;;0.98;100.00;102325.63;5029730;28;20211;-68
2021/03/03 01:37:19;;;;;;;31.07;14.83;;;;;;;0.72;100.00;102332.19;5028859;28;20362;-69
2021/03/03 01:39:47;;;;;;;28.87;14.67;;;;;;;0.91;100.00;102319.28;5029623;28;20188;-68
2021/03/03 01:42:12;;;;;;;27.20;14.40;;;;;;;1.15;100.00;102312.03;5027381;28;20224;-69
2021/03/03 01:44:38;;;;;;;24.73;13.47;;;;;;;0.90;100.00;102317.63;5028267;28;20207;-70
2021/03/03 01:47:03;;;;;;;29.50;15.33;;;;;;;0.97;100.00;102308.75;5028140;28;20220;-68
2021/03/03 01:49:29;;;;;;;29.17;14.40;;;;;;;1.11;100.00;102300.00;5029047;28;20192;-69
2021/03/03 01:51:57;;;;;;;25.67;13.43;;;;;;;0.93;100.00;102302.03;5011545;28;20248;-68
2021/03/03 01:54:22;;;;;;;29.20;14.23;;;;;;;0.92;100.00;102299.56;5048401;28;20195;-70
2021/03/03 01:56:51;;;;;;;27.67;13.53;;;;;;;0.97;100.00;102298.03;5047953;28;20227;-68
2021/03/03 01:59:18;;;;;;;27.87;13.50;;;;;;;0.98;100.00;102294.34;5048348;28;20198;-69
2021/03/03 02:01:46;;;;;;;30.17;13.87;;;;;;;0.94;100.00;102293.03;5047349;28;20227;-69
2021/03/03 02:04:14;;;;;;;26.67;13.40;;;;;;;0.71;100.00;102285.88;5031979;28;20224;-69
2021/03/03 02:06:52;;;;;;;28.17;13.73;;;;;;;0.65;100.00;102281.22;5048030;28;20728;-69
2021/03/03 02:09:26;;;;;;;26.40;12.53;;;;;;;0.93;100.00;102283.31;4999692;28;20195;-68
2021/03/03 02:12:06;;;;;;;24.60;11.37;;;;;;;0.83;100.00;102268.50;5047137;28;20230;-69
2021/03/03 02:14:34;;;;;;;25.03;12.30;;;;;;;0.91;100.00;102271.13;5048228;28;20598;-68
2021/03/03 02:17:02;;;;;;;27.33;13.20;;;;;;;0.97;100.00;102270.44;5014849;28;20792;-69
2021/03/03 02:19:34;;;;;;;27.37;13.30;;;;;;;0.92;100.00;102262.13;5016093;28;20645;-68
2021/03/03 02:22:17;;;;;;;25.47;13.10;;;;;;;1.03;100.00;102264.44;5047122;28;20266;-68
2021/03/03 02:24:52;;;;;;;30.47;13.37;;;;;;;1.03;100.00;102259.09;5022355;28;20215;-69
2021/03/03 02:27:21;;;;;;;28.47;14.20;;;;;;;0.77;100.00;102261.97;5015694;28;20622;-68
2021/03/03 02:29:48;;;;;;;28.63;13.53;;;;;;;0.84;100.00;102259.44;5048642;28;20188;-69
2021/03/03 02:32:16;;;;;;;24.70;12.83;;;;;;;0.89;100.00;102254.44;5030408;28;20269;-69
2021/03/03 02:34:42;;;;;;;21.47;11.57;;;;;;;0.94;100.00;102252.09;5031290;28;20214;-68
2021/03/03 02:37:11;;;;;;;23.97;11.47;;;;;;;0.95;100.00;102245.72;5031017;28;20231;-69
2021/03/03 02:39:36;;;;;;;22.83;11.17;;;;;;;0.68;100.00;102245.28;5048155;28;20176;-69
2021/03/03 02:42:04;;;;;;;21.10;11.67;;;;;;;0.48;100.00;102244.81;5013917;28;20246;-68
2021/03/03 02:44:32;;;;;;;23.43;12.17;;;;;;;0.60;100.00;102243.44;5015683;28;20258;-70
2021/03/03 02:46:57;;;;;;;19.13;10.93;;;;;;;0.70;100.00;102248.66;5030965;28;20223;-71
2021/03/03 02:49:25;;;;;;;18.50;10.50;;;;;;;0.60;100.00;102246.13;5031467;28;20886;-69
2021/03/03 02:51:56;;;;;;;19.00;10.90;;;;;;;0.59;100.00;102233.78;5014787;28;20688;-69
2021/03/03 02:54:22;;;;;;;19.10;10.70;;;;;;;0.69;100.00;102229.06;5011713;28;20741;-69
2021/03/03 02:56:47;;;;;;;17.43;10.40;;;;;;;0.72;100.00;102228.75;5049474;28;20269;-69
2021/03/03 02:59:28;;;;;;;16.60;9.23;;;;;;;0.61;100.00;102225.59;5051510;28;20186;-68
2021/03/03 03:01:54;;;;;;;15.37;10.17;;;;;;;0.69;100.00;102222.91;5050017;28;20231;-68
2021/03/03 03:04:20;;;;;;;18.03;9.97;;;;;;;0.71;100.00;102220.88;5034609;28;20206;-68
2021/03/03 03:06:48;;;;;;;18.93;10.57;;;;;;;0.52;100.00;102223.94;5017685;28;20585;-68
2021/03/03 03:09:19;;;;;;;24.37;12.20;;;;;;;0.36;100.00;102231.97;5034963;28;20184;-68
2021/03/03 03:11:49;;;;;;;19.70;10.90;;;;;;;0.68;100.00;102224.75;5017605;28;20260;-70
2021/03/03 03:14:27;;;;;;;19.77;11.30;;;;;;;0.75;100.00;102228.38;5017795;28;20290;-69
2021/03/03 03:16:55;;;;;;;22.00;11.30;;;;;;;0.74;100.00;102226.72;5050590;28;20227;-69
2021/03/03 03:19:32;;;;;;;23.30;12.37;;;;;;;0.75;100.00;102224.88;5002559;28;20175;-68
2021/03/03 03:22:00;;;;;;;25.67;12.17;;;;;;;0.73;100.00;102214.34;5034048;28;20230;-70
2021/03/03 03:24:25;;;;;;;24.53;12.47;;;;;;;0.60;100.00;102211.38;5024935;28;20215;-68
2021/03/03 03:26:51;;;;;;;29.87;14.23;;;;;;;0.63;100.00;102205.72;5050363;28;20631;-69
2021/03/03 03:29:17;;;;;;;31.80;15.47;;;;;;;0.53;100.00;102207.75;5034374;28;20201;-68
2021/03/03 03:31:45;;;;;;;32.17;16.23;;;;;;;0.33;100.00;102212.75;5000046;28;20313;-69
2021/03/03 03:34:11;;;;;;;33.60;15.83;;;;;;;0.47;100.00;102204.91;5017900;28;20207;-68
2021/03/03 03:36:37;;;;;;;31.63;15.20;;;;;;;0.55;100.00;102196.84;5049867;28;20234;-69
2021/03/03 03:39:09;;;;;;;31.80;15.57;;;;;;;0.58;100.00;102200.03;5002195;28;20188;-69
2021/03/03 03:41:36;;;;;;;28.30;14.70;;;;;;;0.31;100.00;102201.41;5013736;28;20232;-70
2021/03/03 03:44:05;;;;;;;34.70;15.80;;;;;;;0.49;100.00;102203.72;4997970;28;20674;-69
2021/03/03 03:46:33;;;;;;;31.33;15.10;;;;;;;0.40;100.00;102202.09;5017535;28;20711;-69
2021/03/03 03:48:59;;;;;;;26.90;14.10;;;;;;;0.21;100.00;102211.47;5001391;28;20663;-69
2021/03/03 03:51:24;;;;;;;30.70;16.07;;;;;;;0.08;100.00;102208.47;5016598;28;20231;-69
2021/03/03 03:53:50;;;;;;;30.57;15.43;;;;;;;0.06;100.00;102213.13;5022276;28;20214;-69
2021/03/03 03:56:16;;;;;;;29.80;14.13;;;;;;;0.01;100.00;102215.47;5049446;28;20220;-69
2021/03/03 03:58:42;;;;;;;29.60;15.17;;;;;;;0.05;100.00;102220.28;5017319;28;20207;-68
2021/03/03 04:01:10;;;;;;;32.40;15.57;;;;;;;0.40;100.00;102223.47;5050757;28;20219;-69
2021/03/03 04:03:35;;;;;;;35.80;15.87;;;;;;;0.52;100.00;102216.75;5049193;28;20509;-70
2021/03/03 04:06:01;;;;;;;31.33;15.33;;;;;;;0.56;100.00;102210.06;5050345;28;20226;-68
2021/03/03 04:08:29;;;;;;;30.80;14.47;;;;;;;0.53;100.00;102215.75;5050072;28;20172;-68
2021/03/03 04:10:55;;;;;;;30.10;15.20;;;;;;;0.31;100.00;102212.94;5033017;28;20239;-69
2021/03/03 04:13:25;;;;;;;33.83;15.37;;;;;;;0.14;100.00;102218.47;5032280;28;20219;-69
2021/03/03 04:15:54;;;;;;;33.77;15.63;;;;;;;0.32;100.00;102208.44;5032749;28;20226;-69
2021/03/03 04:18:19;;;;;;;32.23;15.73;;;;;;;0.29;100.00;102211.44;5016602;28;20195;-68
2021/03/03 04:20:45;;;;;;;31.83;16.83;;;;;;;0.07;100.00;102209.44;5032754;28;20231;-69
2021/03/03 04:23:13;;;;;;;33.27;16.23;;;;;;;-0.03;100.00;102219.47;5055614;28;20183;-69
2021/03/03 04:25:40;;;;;;;35.93;16.83;;;;;;;-0.08;100.00;102216.44;5050885;28;20220;-69
2021/03/03 04:28:08;;;;;;;29.63;16.07;;;;;;;-0.08;100.00;102221.78;5033346;28;20242;-68
2021/03/03 04:30:34;;;;;;;31.57;16.23;;;;;;;-0.06;100.00;102218.97;5032648;28;20215;-68
2021/03/03 04:33:02;;;;;;;33.43;16.07;;;;;;;-0.01;100.00;102217.47;5032194;28;20183;-70
2021/03/03 04:35:28;;;;;;;33.57;15.73;;;;;;;0.13;100.00;102208.81;5032639;28;20252;-69
2021/03/03 04:37:54;;;;;;;33.40;16.93;;;;;;;0.14;100.00;102210.44;5049777;28;20207;-68
2021/03/03 04:40:19;;;;;;;32.63;15.77;;;;;;;-0.02;100.00;102212.28;5050601;28;20184;-67
2021/03/03 04:42:45;;;;;;;29.90;15.43;;;;;;;-0.03;100.00;102208.78;5032370;28;20562;-67
2021/03/03 04:45:15;;;;;;;30.33;15.40;;;;;;;0.16;100.00;102208.44;5015886;28;20226;-68
2021/03/03 04:47:41;;;;;;;33.37;15.23;;;;;;;-0.04;100.00;102223.13;5016458;28;20172;-69
2021/03/03 04:50:07;;;;;;;34.20;15.60;;;;;;;-0.02;100.00;102212.28;5049014;28;20614;-69
2021/03/03 04:52:37;;;;;;;37.53;16.87;;;;;;;0.06;100.00;102202.44;5032916;28;20262;-69
2021/03/03 04:55:04;;;;;;;35.00;16.27;;;;;;;0.03;100.00;102216.13;5038149;28;20199;-69
2021/03/03 04:57:30;;;;;;;34.57;17.17;;;;;;;0.05;100.00;102208.78;5051883;28;20223;-68
2021/03/03 04:59:57;;;;;;;31.93;16.10;;;;;;;-0.08;100.00;102216.44;5033417;28;20168;-69
2021/03/03 05:02:25;;;;;;;33.47;15.37;;;;;;;0.08;100.00;102205.78;5049501;28;20230;-68
2021/03/03 05:04:53;;;;;;;30.20;15.03;;;;;;;0.18;100.00;102206.44;5032623;28;20211;-69
2021/03/03 05:07:21;;;;;;;30.27;15.20;;;;;;;0.02;100.00;102206.47;5050085;28;20219;-68
2021/03/03 05:09:47;;;;;;;32.77;16.03;;;;;;;0.07;100.00;102204.09;5033410;28;20599;-68
2021/03/03 05:12:12;;;;;;;31.67;15.07;;;;;;;-0.07;100.00;102207.44;5048161;28;20238;-69
2021/03/03 05:14:38;;;;;;;31.30;16.90;;;;;;;-0.04;100.00;102196.41;5048986;28;20620;-70
2021/03/03 05:17:06;;;;;;;29.23;15.63;;;;;;;0.22;100.00;102197.09;5048164;28;20227;-68
2021/03/03 05:19:31;;;;;;;33.63;16.00;;;;;;;0.08;100.00;102195.94;5032178;28;20640;-68
2021/03/03 05:21:57;;;;;;;33.80;16.03;;;;;;;0.11;100.00;102194.75;5047497;28;20226;-68
2021/03/03 05:24:22;;;;;;;33.07;16.20;;;;;;;-0.09;100.00;102187.25;5012859;28;20215;-69
2021/03/03 05:26:48;;;;;;;29.53;16.63;;;;;;;-0.17;100.00;102185.41;5015194;28;20215;-68
2021/03/03 05:29:14;;;;;;;29.20;14.77;;;;;;;-0.10;100.00;102181.09;5051373;28;20179;-69
2021/03/03 05:31:42;;;;;;;31.90;15.20;;;;;;;-0.19;100.00;102187.41;5043804;28;20315;-68
2021/03/03 05:34:08;;;;;;;31.87;15.57;;;;;;;0.02;100.00;102177.09;5056053;28;20238;-70
2021/03/03 05:36:36;;;;;;;33.27;16.23;;;;;;;0.12;100.00;102175.91;5064603;28;20228;-70
2021/03/03 05:39:07;;;;;;;33.07;16.63;;;;;;;0.11;100.00;102168.03;5050125;28;20322;-69
2021/03/03 05:41:33;;;;;;;34.97;17.20;;;;;;;-0.03;100.00;102170.59;5047621;28;20337;-70
2021/03/03 05:43:58;;;;;;;36.03;16.60;;;;;;;0.09;100.00;102165.56;5064033;28;20203;-71
2021/03/03 05:46:24;;;;;;;31.77;16.33;;;;;;;0.05;100.00;102166.06;5048102;28;20700;-72
2021/03/03 05:48:52;;;;;;;31.67;15.90;;;;;;;-0.15;100.00;102159.38;5050023;28;20672;-70
2021/03/03 05:51:17;;;;;;;37.80;16.83;;;;;;;-0.13;100.00;102160.03;5015231;28;20227;-69
2021/03/03 05:53:46;;;;;;;33.13;16.27;;;;;;;-0.10;100.00;102165.06;5047788;28;20219;-70
2021/03/03 05:56:12;;;;;;;31.87;16.20;;;;;;;-0.11;100.00;102157.22;5048211;28;20783;-70
2021/03/03 05:58:38;;;;;;;32.07;16.70;;;;;;;0.02;100.00;102153.06;5082202;28;20203;-71
2021/03/03 06:01:08;;;;;;;36.13;16.23;;;;;;;0.17;100.00;102162.06;5047689;28;20219;-69
2021/03/03 06:03:36;;;;;;;32.27;17.03;;;;;;;0.20;100.00;102156.34;5047831;28;20318;-69
2021/03/03 06:06:02;;;;;;;33.47;16.13;;;;;;;0.25;100.00;102149.50;5030244;28;20211;-70
2021/03/03 06:08:29;;;;;;;33.27;16.63;;;;;;;0.29;100.00;102152.66;5080239;28;20191;-70
2021/03/03 06:10:54;;;;;;;33.07;16.37;;;;;;;0.29;100.00;102148.16;5081733;28;20285;-72
2021/03/03 06:13:23;;;;;;;37.80;17.00;;;;;;;0.34;100.00;102147.66;5032419;28;20210;-72
2021/03/03 06:15:49;;;;;;;34.57;16.37;;;;;;;0.24;100.00;102147.00;5030906;28;20232;-70
2021/03/03 06:18:16;;;;;;;33.20;16.23;;;;;;;0.02;100.00;102145.06;4997195;28;20315;-70
2021/03/03 06:20:43;;;;;;;32.10;16.40;;;;;;;-0.04;100.00;102147.53;5037988;28;20239;-71
2021/03/03 06:23:30;;;;;;;30.47;15.77;;;;;;;0.08;100.00;102147.03;5030341;28;20183;-69
2021/03/03 06:25:55;;;;;;;32.13;16.33;;;;;;;0.30;100.00;102141.00;5050862;28;20307;-69
2021/03/03 06:28:31;;;;;;;31.07;16.20;;;;;;;0.19;100.00;102149.38;5038972;28;20274;-69
2021/03/03 06:30:57;;;;;;;29.30;15.03;;;;;;;0.21;100.00;102147.34;5038645;28;20234;-72
2021/03/03 06:33:27;;;;;;;30.80;16.60;;;;;;;0.44;100.00;102149.13;5056484;28;20203;-70
2021/03/03 06:35:54;;;;;;;33.80;16.70;;;;;;;0.30;100.00;102157.03;5066105;28;20664;-70
2021/03/03 06:38:31;;;;;;;29.07;15.77;;;;;;;0.39;100.00;102157.66;5018190;28;20574;-69
2021/03/03 06:40:57;;;;;;;29.03;15.93;;;;;;;0.35;100.00;102154.66;5034358;28;20227;-68
2021/03/03 06:43:31;;;;;;;30.83;16.67;;;;;;;0.31;100.00;102153.34;5030643;28;20764;-69
2021/03/03 06:46:13;;;;;;;28.30;15.33;;;;;;;0.44;100.00;102146.44;5027362;28;20592;-71
2021/03/03 06:48:40;;;;;;;27.63;15.73;;;;;;;0.55;100.00;102152.28;5042410;28;20190;-70
2021/03/03 06:51:29;;;;;;;27.67;15.17;;;;;;;0.53;100.00;102148.94;5051411;28;20230;-70
2021/03/03 06:53:56;;;;;;;29.63;15.93;;;;;;;0.69;100.00;102148.88;5050051;28;20597;-70
2021/03/03 06:56:41;;;;;;;29.23;16.03;;;;;;;0.85;100.00;102143.50;5082695;28;20243;-70
2021/03/03 06:59:17;;;;;;;28.27;15.73;;;;;;;0.72;100.00;102148.56;5051077;28;20196;-70
2021/03/03 07:02:09;;;;;;;26.33;15.43;;;;;;;0.92;100.00;102149.81;5083565;28;20231;-69
2021/03/03 07:04:42;;;;;;;27.60;15.37;;;;;;;0.87;100.00;102144.16;5026811;28;20265;-70
2021/03/03 07:07:18;;;;;;;28.03;15.37;;;;;;;0.93;100.00;102148.78;5018001;28;20216;-71
2021/03/03 07:09:50;;;;;;;25.07;14.63;;;;;;;1.09;100.00;102141.53;5067878;28;20188;-70
2021/03/03 07:12:24;;;;;;;28.90;16.90;;;;;;;1.23;100.00;102151.50;5033574;28;20231;-70
2021/03/03 07:15:01;;;;;;;28.63;16.27;;;;;;;1.27;100.00;102150.13;5067792;28;20214;-70
2021/03/03 07:17:43;;;;;;;28.20;15.33;;;;;;;1.56;100.00;102151.09;5052021;28;20602;-70
2021/03/03 07:20:15;;;;;;;27.53;15.57;;;;;;;1.69;100.00;102143.31;5033405;28;20180;-70
2021/03/03 07:22:41;;;;;;;28.13;15.80;;;;;;;1.55;100.00;102149.44;5083280;28;20671;-70
2021/03/03 07:25:08;;;;;;;26.37;15.63;;;;;;;1.72;100.00;102145.63;5050699;28;20710;-71
2021/03/03 07:27:36;;;;;;;26.17;15.20;;;;;;;1.78;100.00;102144.94;5067922;28;20714;-69
2021/03/03 07:30:11;;;;;;;27.33;15.33;;;;;;;1.93;100.00;102138.59;5035183;28;20184;-70
2021/03/03 07:32:37;;;;;;;27.30;15.40;;;;;;;1.91;100.00;102143.28;5067326;28;20242;-70
2021/03/03 07:35:06;;;;;;;29.20;16.97;;;;;;;2.08;100.00;102131.41;5084170;28;20207;-69
2021/03/03 07:37:46;;;;;;;31.07;17.43;;;;;;;2.20;100.00;102130.81;5053692;28;20207;-69
2021/03/03 07:40:13;;;;;;;30.50;16.67;;;;;;;2.21;100.00;102129.78;5020231;28;20191;-69
2021/03/03 07:42:42;;;;;;;30.13;17.27;;;;;;;2.48;100.00;102129.16;5036086;28;20187;-69
2021/03/03 07:45:12;;;;;;;30.37;17.50;;;;;;;2.67;100.00;102114.19;5053612;28;20684;-71
2021/03/03 07:47:39;;;;;;;32.67;17.90;;;;;;;2.63;100.00;102121.97;5034439;28;20669;-69
2021/03/03 07:50:09;;;;;;;29.87;17.10;;;;;;;2.57;100.00;102123.53;5017348;28;20641;-69
2021/03/03 07:52:36;;;;;;;31.37;17.67;;;;;;;2.82;100.00;102123.06;5049225;28;20258;-70
2021/03/03 07:55:02;;;;;;;33.20;18.83;;;;;;;2.87;100.00;102123.31;5017584;28;20246;-70
2021/03/03 07:57:28;;;;;;;30.57;18.00;;;;;;;2.98;100.00;102124.69;5033402;28;20214;-67
2021/03/03 07:59:56;;;;;;;33.10;18.17;;;;;;;3.09;100.00;102122.34;5033980;28;20195;-70
2021/03/03 08:02:22;;;;;;;29.07;18.23;;;;;;;3.15;100.00;102118.91;5049457;28;20247;-70
2021/03/03 08:04:48;;;;;;;26.67;17.47;;;;;;;3.41;100.00;102120.06;5033904;28;20576;-71
2021/03/03 08:07:17;;;;;;;28.33;18.00;;;;;;;3.66;100.00;102114.09;5034732;28;20219;-73
2021/03/03 08:10:14;;;;;;;28.50;17.27;;;;;;;3.81;100.00;102114.03;5016934;28;20192;-69
2021/03/03 08:13:06;;;;;;;25.63;16.13;;;;;;;3.77;100.00;102116.28;5049541;28;20215;-71
2021/03/03 08:15:35;;;;;;;26.93;16.63;;;;;;;3.95;100.00;102120.16;5064223;28;20220;-70
2021/03/03 08:18:22;;;;;;;28.87;17.47;;;;;;;4.15;100.00;102112.25;5049837;28;20203;-69
2021/03/03 08:20:57;;;;;;;26.00;17.43;;;;;;;4.15;100.00;102112.25;5041640;28;20261;-70
2021/03/03 08:23:49;;;;;;;31.33;17.37;;;;;;;4.63;100.00;102102.22;5008865;28;20684;-70
2021/03/03 08:26:15;;;;;;;29.77;17.70;;;;;;;4.76;100.00;102107.69;5026510;28;20838;-70
2021/03/03 08:28:40;;;;;;;29.13;17.50;;;;;;;4.89;100.00;102102.38;5050743;28;20187;-69
2021/03/03 08:31:09;;;;;;;27.47;16.97;;;;;;;4.98;100.00;102094.78;5049346;28;20610;-69
2021/03/03 08:33:35;;;;;;;28.67;17.57;;;;;;;5.07;100.00;102088.19;5050381;28;20870;-71
2021/03/03 08:36:01;;;;;;;26.13;16.83;;;;;;;5.22;100.00;102096.94;5050491;28;20223;-72
2021/03/03 08:38:26;;;;;;;25.90;16.60;;;;;;;5.29;100.00;102095.06;5032990;28;20233;-69
2021/03/03 08:40:52;;;;;;;24.63;16.97;;;;;;;5.46;100.00;102082.91;5032400;28;20261;-70
2021/03/03 08:43:39;;;;;;;24.37;15.70;;;;;;;5.64;100.00;102075.03;5032055;28;20183;-72
2021/03/03 08:46:19;;;;;;;26.63;15.83;;;;;;;5.79;100.00;102077.38;5013931;28;20691;-72
2021/03/03 08:49:05;;;;;;;23.83;16.07;;;;;;;6.08;100.00;102068.88;5042601;28;20194;-71
2021/03/03 08:51:38;;;;;;;21.27;14.80;;;;;;;6.28;100.00;102064.25;5039389;28;20211;-71
2021/03/03 08:54:23;;;;;;;23.13;15.53;;;;;;;6.44;100.00;102074.63;5031473;28;20214;-72
2021/03/03 08:56:54;;;;;;;22.73;14.70;;;;;;;6.52;100.00;102062.56;5017256;28;20231;-71
2021/03/03 08:59:28;;;;;;;22.47;14.43;;;;;;;6.75;100.00;102071.00;5017370;28;20183;-71
2021/03/03 09:02:12;;;;;;;21.70;14.53;;;;;;;7.13;100.00;102066.47;5047661;28;20597;-71
2021/03/03 09:04:38;;;;;;;21.50;13.80;;;;;;;7.28;100.00;102060.56;5018299;28;20700;-71
2021/03/03 09:07:05;;;;;;;20.63;13.77;;;;;;;7.37;100.00;102053.84;5048629;28;20226;-71
2021/03/03 09:09:38;;;;;;;18.20;12.63;;;;;;;7.54;100.00;102044.16;5048748;28;20187;-72
2021/03/03 09:12:05;;;;;;;17.60;12.83;;;;;;;7.58;100.00;102044.56;5031661;28;20223;-71
2021/03/03 09:14:36;;;;;;;19.97;12.33;;;;;;;7.71;100.00;102054.25;5031784;28;20234;-74
2021/03/03 09:17:04;;;;;;;18.00;12.40;;;;;;;7.85;100.00;102036.84;5047835;28;20281;-72
2021/03/03 09:19:30;;;;;;;17.47;12.40;;;;;;;8.07;100.00;102033.53;5010373;28;20189;-73
2021/03/03 09:22:02;;;;;;;16.03;12.10;;;;;;;8.34;100.00;102034.97;5028390;28;20535;-69
2021/03/03 09:24:29;;;;;;;16.20;11.37;;;;;;;8.72;98.75;102041.84;5032758;28;20268;-67
2021/03/03 09:27:10;;;;;;;16.70;11.13;;;;;;;8.72;97.85;102035.56;5049639;28;20235;-68
2021/03/03 09:29:39;;;;;;;16.80;10.93;;;;;;;9.03;93.63;102028.94;5071517;28;20202;-68
2021/03/03 09:32:20;;;;;;;14.47;10.30;;;;;;;8.91;93.46;102025.31;5050992;28;21070;-69
2021/03/03 09:34:51;;;;;;;17.33;10.67;;;;;;;9.33;91.79;102033.28;5068909;28;20220;-70
2021/03/03 09:37:20;;;;;;;16.57;11.17;;;;;;;9.57;90.85;102033.13;5046133;28;20220;-69
2021/03/03 09:39:56;;;;;;;15.97;11.17;;;;;;;9.72;89.43;102035.38;5015498;28;20187;-69
2021/03/03 09:42:22;;;;;;;16.33;11.03;;;;;;;9.66;89.42;102033.63;5043654;28;20217;-68
2021/03/03 09:44:50;;;;;;;14.47;10.47;;;;;;;9.96;87.61;102027.06;5031953;28;20199;-68
2021/03/03 09:47:38;;;;;;;15.20;9.80;;;;;;;9.98;84.08;102035.00;5027297;28;20299;-70
2021/03/03 09:50:10;;;;;;;13.87;9.17;;;;;;;10.07;83.69;102029.81;5016347;28;20290;-70
2021/03/03 09:52:42;;;;;;;13.93;9.67;;;;;;;10.21;81.56;102031.22;5047248;28;20247;-71
2021/03/03 09:55:12;;;;;;;16.63;9.90;;;;;;;10.32;82.17;102026.88;5045521;28;20203;-71
2021/03/03 09:57:38;;;;;;;11.47;9.27;;;;;;;10.21;81.60;102023.06;5031910;28;20212;-71
2021/03/03 10:00:07;;;;;;;13.37;8.90;;;;;;;10.59;79.41;102021.50;5048125;28;20207;-70
2021/03/03 10:02:33;;;;;;;14.97;9.10;;;;;;;10.75;77.89;102018.06;5014826;28;20291;-69
2021/03/03 10:04:59;;;;;;;12.03;9.17;;;;;;;11.00;76.41;102022.09;5015255;28;20212;-69
2021/03/03 10:07:25;;;;;;;13.73;8.90;;;;;;;10.97;76.15;102016.31;5034811;28;20222;-71
2021/03/03 10:10:01;;;;;;;13.40;8.87;;;;;;;11.18;75.56;102017.31;5055160;28;20194;-69
2021/03/03 10:12:36;;;;;;;13.17;9.40;;;;;;;11.31;73.72;102008.84;5053087;28;20226;-71
2021/03/03 10:15:07;;;;;;;13.53;9.60;;;;;;;11.35;74.08;102010.00;5054083;28;20557;-70
2021/03/03 10:17:37;;;;;;;12.33;9.20;;;;;;;11.64;71.25;101998.88;5036946;28;20306;-68
2021/03/03 10:20:08;;;;;;;11.47;8.80;;;;;;;11.57;71.70;102013.72;5037164;28;20195;-70
2021/03/03 10:22:34;;;;;;;11.90;8.80;;;;;;;11.90;71.15;102009.09;5019995;28;20303;-70
2021/03/03 10:25:09;;;;;;;12.67;8.90;;;;;;;11.97;70.49;101994.25;5052734;28;20203;-69
2021/03/03 10:27:39;;;;;;;12.63;8.70;;;;;;;12.34;67.19;101990.75;5054292;28;20213;-70
2021/03/03 10:30:24;;;;;;;12.27;8.57;;;;;;;12.13;66.83;101985.25;5052762;28;20401;-69
2021/03/03 10:32:50;;;;;;;13.67;8.60;;;;;;;11.95;67.69;101996.41;5051796;28;20342;-69
2021/03/03 10:35:16;;;;;;;14.30;9.70;;;;;;;12.00;67.76;102001.94;5051395;28;20207;-69
2021/03/03 10:37:43;;;;;;;13.37;9.00;;;;;;;12.01;68.31;102000.88;5053537;28;20676;-68
2021/03/03 10:40:15;;;;;;;13.57;8.93;;;;;;;12.10;67.04;101996.63;5019228;28;20196;-70
2021/03/03 10:42:41;;;;;;;11.90;9.53;;;;;;;12.14;67.89;101992.34;5035787;28;20242;-69
2021/03/03 10:45:15;;;;;;;14.63;9.20;;;;;;;12.34;66.54;101990.75;5018934;28;20195;-70
2021/03/03 10:47:42;;;;;;;14.83;10.17;;;;;;;12.17;66.18;101991.84;5053583;28;20544;-68
2021/03/03 10:50:12;;;;;;;13.97;9.10;;;;;;;12.64;63.97;101991.16;5035616;28;20176;-69
2021/03/03 10:52:37;;;;;;;13.80;9.13;;;;;;;12.36;64.70;101982.28;5017643;28;20222;-69
2021/03/03 10:55:24;;;;;;;20.50;9.47;;;;;;;12.45;63.54;101986.25;5018335;28;20204;-69
2021/03/03 10:58:08;;;;;;;18.07;9.33;;;;;;;12.67;62.45;101978.91;5018808;28;20701;-69
2021/03/03 11:00:56;;;;;;;12.67;8.90;;;;;;;12.91;61.31;101971.09;5035004;28;20183;-69
2021/03/03 11:03:36;;;;;;;14.37;9.23;;;;;;;13.32;59.55;101973.16;5034947;28;20717;-71
2021/03/03 11:06:02;;;;;;;15.00;9.80;;;;;;;13.25;60.08;101965.16;5035321;28;20219;-69
2021/03/03 11:08:27;;;;;;;15.17;10.13;;;;;;;13.32;58.51;101967.69;5051365;28;20547;-69
2021/03/03 11:11:03;;;;;;;16.97;10.23;;;;;;;13.25;60.48;101961.63;5018817;28;20219;-70
2021/03/03 11:13:31;;;;;;;13.60;9.60;;;;;;;13.47;59.03;101950.34;5035102;28;20203;-69
2021/03/03 11:15:58;;;;;;;18.47;9.93;;;;;;;13.63;58.53;101945.88;5051346;28;20238;-70
2021/03/03 11:18:24;;;;;;;17.17;10.00;;;;;;;13.61;56.38;101940.66;5052086;28;20590;-71
2021/03/03 11:20:50;;;;;;;15.33;11.33;;;;;;;13.77;56.32;101947.88;5035576;28;20229;-70